Time;durP1;ratioP1;P1;durP2;ratioP2;P2;SDS_P1;SDS_P2;PMS_P1;PMS_P2;Temp;Humidity;BMP_temperature;BMP_pressure;BME280_temperature;BME280_humidity;BME280_pressure;Samples;Min_cycle;Max_cycle;Signal;HPM_P1;HPM_P2
2022/08/04 00:01:49;;;;;;;9.50;3.65;;;;;;;26.69;46.27;100207.50;4149345;28;20054;-65
2022/08/04 00:04:00;;;;;;;7.45;3.20;;;;;;;26.64;46.08;100201.53;4150828;28;20125;-65
2022/08/04 00:06:07;;;;;;;9.75;3.13;;;;;;;26.69;46.11;100207.50;4150595;28;20048;-65
2022/08/04 00:08:21;;;;;;;5.97;2.88;;;;;;;26.72;46.07;100211.78;4150685;28;20053;-65
2022/08/04 00:10:28;;;;;;;9.02;2.97;;;;;;;26.76;46.30;100200.84;4181935;28;20048;-65
2022/08/04 00:12:36;;;;;;;7.93;3.13;;;;;;;26.75;46.40;100195.63;4149707;28;20415;-65
2022/08/04 00:14:48;;;;;;;7.43;3.38;;;;;;;26.72;46.46;100201.13;4150389;28;20531;-65
2022/08/04 00:16:53;;;;;;;8.90;2.97;;;;;;;26.70;46.20;100198.56;4149522;28;20034;-65
2022/08/04 00:19:01;;;;;;;10.30;3.25;;;;;;;26.64;46.65;100198.88;4147796;28;20041;-65
2022/08/04 00:21:06;;;;;;;6.15;3.08;;;;;;;26.62;46.50;100198.09;4148822;28;20484;-65
2022/08/04 00:23:12;;;;;;;7.30;3.20;;;;;;;26.65;46.25;100201.44;4130882;28;20046;-66
2022/08/04 00:25:15;;;;;;;5.20;2.90;;;;;;;26.63;46.61;100195.38;4149147;28;20096;-65
2022/08/04 00:27:19;;;;;;;8.98;3.72;;;;;;;26.60;46.44;100200.84;4142502;28;20038;-65
2022/08/04 00:29:23;;;;;;;4.93;2.83;;;;;;;26.54;46.54;100197.69;4149028;28;20042;-65
2022/08/04 00:31:28;;;;;;;7.22;3.00;;;;;;;26.58;46.18;100200.09;4149100;28;20292;-65
2022/08/04 00:33:51;;;;;;;;;;;;;;;26.48;46.52;100194.41;4148598;28;20046;-65
2022/08/04 00:35:55;;;;;;;10.70;3.20;;;;;;;26.54;46.41;100201.19;4149189;28;19921;-65
2022/08/04 00:37:59;;;;;;;5.30;2.85;;;;;;;26.55;46.37;100204.75;4147381;28;20048;-65
2022/08/04 00:40:13;;;;;;;9.40;3.35;;;;;;;26.58;46.49;100199.22;4147094;28;20050;-65
2022/08/04 00:42:42;;;;;;;8.40;3.53;;;;;;;26.53;46.55;100203.94;4140792;28;20384;-65
2022/08/04 00:45:34;;;;;;;14.85;3.70;;;;;;;26.51;46.75;100201.38;4146689;28;20065;-65
2022/08/04 00:48:09;;;;;;;13.40;3.72;;;;;;;26.48;46.93;100204.22;4115633;28;20058;-66
2022/08/04 00:50:20;;;;;;;6.38;3.22;;;;;;;26.51;47.19;100198.72;4147965;28;20045;-65
2022/08/04 00:52:33;;;;;;;8.32;3.22;;;;;;;26.49;47.16;100200.63;4149546;28;20041;-65
2022/08/04 00:54:46;;;;;;;8.93;3.25;;;;;;;26.53;47.06;100202.13;4149254;28;20042;-65
2022/08/04 00:57:02;;;;;;;10.18;3.08;;;;;;;26.53;47.09;100199.47;4147527;28;20040;-65
2022/08/04 00:59:18;;;;;;;9.15;3.72;;;;;;;26.50;47.25;100196.97;4147780;28;20125;-65
2022/08/04 01:01:41;;;;;;;7.53;3.17;;;;;;;26.52;47.02;100204.88;4141037;28;20038;-65
2022/08/04 01:03:54;;;;;;;8.88;3.28;;;;;;;26.45;47.23;100205.25;4147318;28;20052;-65
2022/08/04 01:06:06;;;;;;;9.23;3.15;;;;;;;26.42;47.40;100208.09;4147280;28;20041;-65
2022/08/04 01:08:41;;;;;;;10.40;3.45;;;;;;;26.42;47.44;100207.25;4178838;28;20047;-65
2022/08/04 01:10:49;;;;;;;;;;;;;;;26.28;47.92;100205.31;4148045;28;20511;-66
2022/08/04 01:13:17;;;;;;;5.00;2.97;;;;;;;26.30;48.06;100204.31;4160498;28;19921;-66
2022/08/04 01:15:32;;;;;;;7.70;3.08;;;;;;;26.21;48.55;100214.59;4147757;28;20061;-66
2022/08/04 01:18:04;;;;;;;5.85;2.83;;;;;;;26.00;49.32;100212.16;4148440;28;20115;-65
2022/08/04 01:20:08;;;;;;;10.77;4.18;;;;;;;25.95;49.52;100227.53;4149875;28;20042;-65
2022/08/04 01:22:28;;;;;;;;;;;;;;;25.65;50.80;100217.53;4148965;28;20514;-65
2022/08/04 01:25:01;;;;;;;7.53;3.40;;;;;;;25.58;50.15;100221.47;4132977;28;20510;-65
2022/08/04 01:27:10;;;;;;;7.63;2.88;;;;;;;25.69;50.03;100216.44;4151025;28;20042;-65
2022/08/04 01:29:18;;;;;;;8.13;3.15;;;;;;;25.89;49.76;100217.19;4179867;28;20500;-66
2022/08/04 01:31:29;;;;;;;9.90;2.80;;;;;;;26.03;49.49;100213.81;4145725;28;20550;-66
2022/08/04 01:33:36;;;;;;;5.75;2.88;;;;;;;26.10;49.54;100208.06;4146978;28;20038;-66
2022/08/04 01:36:05;;;;;;;8.30;3.28;;;;;;;26.12;49.62;100213.31;4145125;28;20034;-66
2022/08/04 01:38:15;;;;;;;7.38;2.97;;;;;;;26.16;49.61;100206.00;4150022;28;20099;-66
2022/08/04 01:40:26;;;;;;;9.75;3.25;;;;;;;26.18;49.83;100206.78;4147991;28;20045;-66
2022/08/04 01:42:32;;;;;;;6.32;3.10;;;;;;;26.20;49.98;100203.09;4149242;28;20509;-66
2022/08/04 01:44:39;;;;;;;10.70;3.13;;;;;;;26.20;50.01;100199.59;4147878;28;20561;-66
2022/08/04 01:46:42;;;;;;;7.43;2.75;;;;;;;26.16;49.71;100206.88;4159567;28;20519;-66
2022/08/04 01:48:47;;;;;;;15.63;4.25;;;;;;;26.17;49.80;100199.72;4165426;28;20033;-66
2022/08/04 01:50:52;;;;;;;8.63;3.10;;;;;;;26.13;49.79;100199.91;4164199;28;20052;-65
2022/08/04 01:52:56;;;;;;;8.98;3.20;;;;;;;26.12;49.27;100198.19;4137610;28;20046;-65
2022/08/04 01:55:01;;;;;;;9.77;3.55;;;;;;;26.13;49.61;100194.56;4146346;28;20038;-65
2022/08/04 01:57:05;;;;;;;6.95;3.53;;;;;;;26.16;49.53;100198.03;4148966;28;20488;-65
2022/08/04 01:59:30;;;;;;;11.38;3.47;;;;;;;26.11;49.49;100195.63;4133115;28;20092;-65
2022/08/04 02:01:37;;;;;;;9.45;3.22;;;;;;;26.10;49.45;100193.88;4132608;28;20404;-65
2022/08/04 02:03:44;;;;;;;6.80;3.33;;;;;;;26.05;49.06;100186.16;4135260;28;20578;-65
2022/08/04 02:06:18;;;;;;;6.25;3.30;;;;;;;26.02;48.98;100186.31;4137265;28;20111;-65
2022/08/04 02:08:30;;;;;;;6.78;3.28;;;;;;;26.00;48.75;100188.19;4143512;28;20049;-65
2022/08/04 02:10:51;;;;;;;9.73;3.55;;;;;;;26.01;48.62;100187.25;4148305;28;20103;-65
2022/08/04 02:13:04;;;;;;;6.78;3.05;;;;;;;25.99;48.68;100185.59;4148197;28;20045;-65
2022/08/04 02:15:13;;;;;;;5.32;3.05;;;;;;;25.94;48.38;100176.03;4148650;28;20073;-65
2022/08/04 02:17:25;;;;;;;5.90;2.83;;;;;;;25.94;48.02;100180.50;4148718;28;20042;-65
2022/08/04 02:19:33;;;;;;;4.80;3.00;;;;;;;25.92;48.21;100182.41;4148669;28;20484;-65
2022/08/04 02:21:37;;;;;;;8.07;3.40;;;;;;;25.90;48.36;100176.28;4148516;28;20049;-65
2022/08/04 02:23:51;;;;;;;9.77;3.28;;;;;;;25.91;48.47;100178.88;4148422;28;20049;-65
2022/08/04 02:25:57;;;;;;;8.40;3.58;;;;;;;25.81;48.77;100172.31;4148252;28;20041;-65
2022/08/04 02:28:20;;;;;;;11.13;3.83;;;;;;;25.81;48.85;100171.47;4138415;28;20045;-65
2022/08/04 02:30:30;;;;;;;7.88;2.92;;;;;;;25.83;48.96;100174.91;4148525;28;20045;-66
2022/08/04 02:32:39;;;;;;;8.00;3.22;;;;;;;25.77;49.47;100171.66;4148181;28;20045;-66
2022/08/04 02:34:48;;;;;;;7.40;3.33;;;;;;;25.76;49.52;100177.91;4153384;28;20050;-65
2022/08/04 02:36:54;;;;;;;10.20;4.05;;;;;;;25.75;49.69;100181.50;4152840;28;20037;-65
2022/08/04 02:39:00;;;;;;;;;;;;;;;25.50;50.33;100181.09;4147679;28;20033;-65
2022/08/04 02:41:05;;;;;;;9.30;3.25;;;;;;;25.61;50.23;100179.59;4175608;28;19921;-65
2022/08/04 02:43:09;;;;;;;8.07;3.42;;;;;;;25.70;50.13;100178.25;4146391;28;20044;-65
2022/08/04 02:45:13;;;;;;;6.88;3.17;;;;;;;25.69;50.01;100175.66;4146491;28;20037;-65
2022/08/04 02:47:19;;;;;;;7.82;3.25;;;;;;;25.68;50.08;100180.09;4146943;28;20038;-65
2022/08/04 02:49:24;;;;;;;7.60;3.13;;;;;;;25.68;50.13;100171.28;4130697;28;20085;-65
2022/08/04 02:51:37;;;;;;;7.35;3.25;;;;;;;25.67;50.03;100170.41;4146964;28;20108;-65
2022/08/04 02:53:41;;;;;;;8.73;3.17;;;;;;;25.69;49.94;100176.50;4148047;28;20123;-65
2022/08/04 02:55:45;;;;;;;7.85;3.10;;;;;;;25.66;49.98;100173.16;4148181;28;20046;-65
2022/08/04 02:57:54;;;;;;;10.10;3.20;;;;;;;25.66;50.20;100171.34;4148050;28;20076;-65
2022/08/04 03:00:07;;;;;;;9.57;3.20;;;;;;;25.66;50.10;100178.50;4147929;28;20291;-65
2022/08/04 03:02:09;;;;;;;5.28;2.92;;;;;;;25.64;50.19;100183.88;4147235;28;20048;-65
2022/08/04 03:04:26;;;;;;;7.97;2.63;;;;;;;25.63;50.15;100182.16;4147922;28;20137;-65
2022/08/04 03:07:20;;;;;;;9.43;2.80;;;;;;;25.62;50.03;100180.44;4147373;28;20484;-65
2022/08/04 03:09:42;;;;;;;5.03;2.67;;;;;;;25.49;50.26;100176.72;4081789;29;20040;-65
2022/08/04 03:12:06;;;;;;;6.00;3.30;;;;;;;25.57;50.08;100179.84;4097511;29;20106;-66
2022/08/04 03:14:29;;;;;;;4.30;2.90;;;;;;;25.61;49.74;100179.59;4108515;28;20054;-65
2022/08/04 03:17:08;;;;;;;4.72;2.63;;;;;;;25.61;49.74;100176.03;4136762;28;20488;-65
2022/08/04 03:19:43;;;;;;;8.45;3.03;;;;;;;25.59;50.26;100181.44;4132293;28;20408;-66
2022/08/04 03:22:22;;;;;;;4.70;2.63;;;;;;;25.57;50.12;100175.38;4140599;28;20125;-65
2022/08/04 03:24:50;;;;;;;7.15;2.90;;;;;;;25.54;50.34;100174.66;4131580;28;20515;-65
2022/08/04 03:27:17;;;;;;;7.90;3.40;;;;;;;25.51;50.29;100186.34;4139628;28;20041;-65
2022/08/04 03:29:54;;;;;;;6.57;3.03;;;;;;;25.49;49.92;100192.69;4147828;28;20518;-65
2022/08/04 03:32:37;;;;;;;5.07;2.85;;;;;;;25.46;49.87;100192.84;4147599;28;20050;-65
2022/08/04 03:35:02;;;;;;;4.85;3.20;;;;;;;25.38;49.80;100191.44;4127176;28;20054;-65
2022/08/04 03:37:25;;;;;;;7.78;2.80;;;;;;;25.42;49.49;100197.44;4146109;28;20496;-66
2022/08/04 03:40:07;;;;;;;6.60;2.65;;;;;;;25.43;49.10;100194.69;4138347;28;20435;-65
2022/08/04 03:42:39;;;;;;;6.18;3.00;;;;;;;25.40;49.08;100200.19;4145196;28;20092;-65
2022/08/04 03:45:22;;;;;;;5.13;2.92;;;;;;;25.35;49.01;100196.03;4141828;28;20049;-65
2022/08/04 03:47:45;;;;;;;6.80;2.90;;;;;;;25.35;48.94;100204.03;4106684;28;20055;-65
2022/08/04 03:50:37;;;;;;;6.05;3.72;;;;;;;25.36;48.75;100201.28;4142288;28;20057;-65
2022/08/04 03:53:21;;;;;;;5.45;3.00;;;;;;;25.36;48.88;100197.78;4147774;28;20372;-66
2022/08/04 03:55:39;;;;;;;5.70;3.28;;;;;;;25.41;48.75;100201.06;4144387;28;20050;-65
2022/08/04 03:58:26;;;;;;;5.82;2.97;;;;;;;25.38;48.78;100194.09;4147637;28;20042;-65
2022/08/04 04:00:46;;;;;;;6.88;3.42;;;;;;;25.37;48.71;100195.03;4147518;28;20050;-65
2022/08/04 04:03:23;;;;;;;8.38;3.47;;;;;;;25.33;48.76;100198.78;4156639;28;20064;-65
2022/08/04 04:06:02;;;;;;;4.68;2.95;;;;;;;25.28;48.59;100203.47;4163776;28;20095;-65
2022/08/04 04:08:20;;;;;;;8.87;3.43;;;;;;;25.25;48.72;100195.66;4143897;28;20058;-65
2022/08/04 04:11:02;;;;;;;6.47;3.10;;;;;;;25.21;48.55;100197.59;4146233;28;20061;-65
2022/08/04 04:13:33;;;;;;;4.60;2.90;;;;;;;25.17;48.60;100193.34;4147062;28;20108;-65
2022/08/04 04:15:58;;;;;;;5.10;3.08;;;;;;;25.23;48.46;100200.16;4178960;28;20045;-65
2022/08/04 04:18:24;;;;;;;6.38;3.30;;;;;;;25.18;48.70;100205.72;4148478;28;20046;-65
2022/08/04 04:20:53;;;;;;;7.80;3.80;;;;;;;25.21;48.55;100213.53;4149206;28;20042;-65
2022/08/04 04:23:05;;;;;;;9.35;3.65;;;;;;;25.25;48.40;100212.47;4148847;28;20539;-66
2022/08/04 04:25:30;;;;;;;9.77;3.75;;;;;;;25.29;48.31;100213.19;4148471;28;20041;-65
2022/08/04 04:27:48;;;;;;;6.35;3.58;;;;;;;25.31;48.18;100211.31;4138461;28;20038;-65
2022/08/04 04:30:07;;;;;;;7.68;3.42;;;;;;;25.28;48.12;100216.78;4135728;28;20403;-65
2022/08/04 04:32:23;;;;;;;11.07;4.00;;;;;;;25.27;48.38;100215.03;4139240;28;20058;-66
2022/08/04 04:34:39;;;;;;;6.20;3.20;;;;;;;25.26;48.43;100213.31;4149871;28;20088;-65
2022/08/04 04:37:01;;;;;;;7.43;3.30;;;;;;;25.25;48.47;100216.94;4146356;28;20038;-65
2022/08/04 04:39:15;;;;;;;5.70;3.40;;;;;;;25.23;48.50;100211.69;4151723;28;20041;-65
2022/08/04 04:41:32;;;;;;;10.25;4.13;;;;;;;25.22;48.42;100212.63;4148834;28;20141;-65
2022/08/04 04:44:09;;;;;;;8.98;3.97;;;;;;;25.17;48.61;100219.97;4148541;28;20193;-65
2022/08/04 04:46:23;;;;;;;13.10;3.80;;;;;;;25.18;48.51;100215.53;4148110;28;20046;-65
2022/08/04 04:48:36;;;;;;;6.07;3.10;;;;;;;25.18;48.31;100216.38;4149897;28;20538;-65
2022/08/04 04:50:55;;;;;;;7.22;3.35;;;;;;;25.20;48.19;100209.19;4181655;28;20116;-65
2022/08/04 04:53:06;;;;;;;6.53;3.65;;;;;;;25.20;48.19;100224.28;4146127;28;20088;-65
2022/08/04 04:55:18;;;;;;;10.57;3.80;;;;;;;25.20;48.40;100221.59;4149787;28;20488;-66
2022/08/04 05:00:09;;;;;;;8.98;3.70;;;;;;;25.17;48.57;100225.28;4147833;28;20415;-66
2022/08/04 05:02:32;;;;;;;7.03;3.60;;;;;;;25.19;48.60;100220.75;4148210;28;20547;-66
2022/08/04 05:05:01;;;;;;;7.38;3.50;;;;;;;25.20;48.20;100216.28;4148429;28;20124;-66
2022/08/04 05:07:21;;;;;;;7.72;4.00;;;;;;;25.13;48.40;100223.75;4149222;28;20046;-65
2022/08/04 05:09:37;;;;;;;10.95;4.18;;;;;;;25.14;48.59;100224.59;4148068;28;20061;-65
2022/08/04 05:11:59;;;;;;;6.13;3.58;;;;;;;25.16;48.41;100220.91;4144319;28;20121;-65
2022/08/04 05:14:08;;;;;;;9.38;3.60;;;;;;;25.20;48.37;100218.94;4149594;28;20080;-66
2022/08/04 05:16:37;;;;;;;6.78;3.20;;;;;;;25.20;48.33;100221.59;4147274;28;20411;-66
2022/08/04 05:18:44;;;;;;;5.78;3.58;;;;;;;25.23;48.22;100225.00;4148922;28;20042;-66
2022/08/04 05:20:53;;;;;;;7.65;3.70;;;;;;;25.25;48.28;100228.41;4146328;28;20045;-66
2022/08/04 05:22:59;;;;;;;7.03;3.65;;;;;;;25.25;48.42;100238.22;4148856;28;20042;-66
2022/08/04 05:25:08;;;;;;;5.97;3.42;;;;;;;25.27;48.49;100231.00;4145106;28;20054;-66
2022/08/04 05:27:16;;;;;;;7.38;3.22;;;;;;;25.32;48.61;100234.34;4146143;28;20060;-66
2022/08/04 05:29:27;;;;;;;7.55;3.58;;;;;;;25.35;48.63;100236.84;4140946;28;20121;-66
2022/08/04 05:31:39;;;;;;;9.55;3.33;;;;;;;25.36;48.84;100235.88;4148751;28;20038;-66
2022/08/04 05:33:48;;;;;;;8.18;4.53;;;;;;;25.37;48.75;100231.44;4149015;28;20038;-66
2022/08/04 05:35:55;;;;;;;9.70;3.67;;;;;;;25.37;48.75;100234.94;4142393;28;20041;-66
2022/08/04 05:38:22;;;;;;;8.18;3.33;;;;;;;25.38;48.79;100238.50;4143714;28;20439;-66
2022/08/04 05:40:25;;;;;;;9.35;3.33;;;;;;;25.38;48.84;100243.81;4146466;28;20447;-66
2022/08/04 05:42:33;;;;;;;6.45;3.58;;;;;;;25.41;48.78;100241.00;4151518;28;20120;-66
2022/08/04 05:44:39;;;;;;;7.22;3.33;;;;;;;25.46;49.06;100232.75;4143740;28;20148;-66
2022/08/04 05:46:46;;;;;;;8.65;3.25;;;;;;;25.48;49.54;100236.19;4146138;28;20046;-66
2022/08/04 05:48:56;;;;;;;8.20;3.40;;;;;;;25.52;49.42;100238.63;4142499;28;20030;-66
2022/08/04 05:51:01;;;;;;;6.53;3.63;;;;;;;25.56;49.60;100236.66;4145079;28;20061;-66
2022/08/04 05:53:05;;;;;;;8.88;3.85;;;;;;;25.62;49.75;100231.03;4143962;28;20038;-66
2022/08/04 05:55:11;;;;;;;;;;;;;;;25.54;49.82;100238.53;4147496;28;20033;-66
2022/08/04 05:57:20;;;;;;;8.45;3.58;;;;;;;25.61;49.94;100245.25;4148678;28;19928;-66
2022/08/04 05:59:25;;;;;;;11.32;3.60;;;;;;;25.68;49.71;100241.34;4148349;28;20037;-66
2022/08/04 06:01:29;;;;;;;6.30;3.78;;;;;;;25.74;49.58;100241.03;4145784;28;20413;-65
2022/08/04 06:03:35;;;;;;;10.95;3.88;;;;;;;25.80;48.92;100239.84;4148282;28;20037;-66
2022/08/04 06:05:41;;;;;;;5.25;3.03;;;;;;;25.83;48.92;100236.16;4144420;28;20050;-65
2022/08/04 06:07:45;;;;;;;8.43;3.83;;;;;;;25.85;48.39;100239.63;4146811;28;20034;-66
2022/08/04 06:10:09;;;;;;;7.70;3.30;;;;;;;25.91;48.57;100242.78;4148554;28;20112;-66
2022/08/04 06:12:15;;;;;;;10.45;3.42;;;;;;;25.96;48.58;100239.88;4146363;28;20049;-66
2022/08/04 06:14:23;;;;;;;6.95;3.20;;;;;;;26.01;47.81;100240.53;4146391;28;20558;-66
2022/08/04 06:16:31;;;;;;;11.18;3.47;;;;;;;26.01;47.50;100237.88;4145793;28;20516;-66
2022/08/04 06:18:39;;;;;;;7.88;3.40;;;;;;;26.09;47.69;100237.44;4143532;28;20049;-66
2022/08/04 06:21:04;;;;;;;8.85;3.42;;;;;;;26.15;47.93;100242.44;4138599;28;20053;-66
2022/08/04 06:23:20;;;;;;;6.03;3.40;;;;;;;26.17;47.03;100243.22;4153960;28;20569;-66
2022/08/04 06:25:28;;;;;;;10.60;3.20;;;;;;;26.20;46.51;100245.72;4143335;28;20044;-66
2022/08/04 06:27:31;;;;;;;7.60;3.65;;;;;;;26.25;47.51;100245.47;4173007;28;20097;-66
2022/08/04 06:29:39;;;;;;;11.27;3.63;;;;;;;26.28;46.11;100242.63;4142554;28;20518;-66
2022/08/04 06:31:45;;;;;;;13.40;4.40;;;;;;;26.27;45.78;100239.13;4153370;28;20041;-66
2022/08/04 06:34:12;;;;;;;11.40;4.10;;;;;;;26.26;45.73;100247.19;4161785;28;20056;-66
2022/08/04 06:36:16;;;;;;;11.20;3.70;;;;;;;26.32;45.65;100256.66;4161691;28;20042;-66
2022/08/04 06:38:20;;;;;;;8.05;3.67;;;;;;;26.38;45.64;100249.19;4136202;28;20038;-66
2022/08/04 06:40:24;;;;;;;11.45;3.30;;;;;;;26.50;45.20;100252.97;4153915;28;20037;-66
2022/08/04 06:42:36;;;;;;;9.73;3.05;;;;;;;26.56;45.59;100255.31;4161462;28;20458;-66
2022/08/04 06:44:40;;;;;;;8.25;3.35;;;;;;;26.59;45.28;100248.91;4158118;28;20099;-67
2022/08/04 06:46:43;;;;;;;4.82;2.92;;;;;;;26.65;45.04;100249.44;4171259;28;20037;-67
2022/08/04 06:48:47;;;;;;;8.80;2.70;;;;;;;26.66;45.27;100250.31;4161420;28;20041;-67
2022/08/04 06:50:52;;;;;;;5.00;2.53;;;;;;;26.69;44.47;100244.81;4162320;28;20044;-68
2022/08/04 06:53:16;;;;;;;5.28;2.55;;;;;;;26.72;44.17;100250.00;4157957;28;20345;-67
2022/08/04 06:55:19;;;;;;;5.15;2.60;;;;;;;26.76;43.98;100251.53;4161541;28;20063;-67
2022/08/04 06:57:25;;;;;;;11.50;2.65;;;;;;;26.69;43.35;100250.16;4142597;28;20042;-68
2022/08/04 06:59:29;;;;;;;5.78;2.65;;;;;;;26.83;43.10;100254.72;4159778;28;20045;-68
2022/08/04 07:01:35;;;;;;;7.10;2.83;;;;;;;26.87;43.04;100252.72;4159766;28;20054;-67
2022/08/04 07:03:40;;;;;;;3.38;2.28;;;;;;;26.92;42.58;100256.84;4159225;28;20037;-67
2022/08/04 07:05:43;;;;;;;3.45;1.90;;;;;;;26.98;42.84;100258.31;4162993;28;20041;-67
2022/08/04 07:07:48;;;;;;;9.18;2.58;;;;;;;27.09;42.86;100261.22;4164123;28;20042;-67
2022/08/04 07:10:01;;;;;;;6.82;2.65;;;;;;;27.20;42.35;100255.25;4162577;28;20045;-67
2022/08/04 07:12:05;;;;;;;7.32;2.60;;;;;;;27.17;42.93;100250.09;4163753;28;20091;-68
2022/08/04 07:14:09;;;;;;;6.07;2.47;;;;;;;27.25;42.66;100255.84;4163542;28;20044;-68
2022/08/04 07:16:14;;;;;;;4.95;2.25;;;;;;;27.19;42.67;100248.22;4177097;28;20037;-68
2022/08/04 07:18:19;;;;;;;5.10;2.10;;;;;;;27.23;42.49;100252.41;4156604;28;20076;-67
2022/08/04 07:20:22;;;;;;;5.05;2.17;;;;;;;27.29;42.50;100244.06;4160678;28;20033;-68
2022/08/04 07:22:40;;;;;;;6.43;2.40;;;;;;;27.34;42.28;100252.66;4162639;28;20049;-68
2022/08/04 07:24:44;;;;;;;9.95;2.38;;;;;;;27.49;41.72;100253.53;4160411;28;20503;-67
2022/08/04 07:26:50;;;;;;;6.05;1.73;;;;;;;27.61;41.47;100254.66;4160399;28;20069;-67
2022/08/04 07:28:53;;;;;;;2.97;2.00;;;;;;;27.62;41.05;100255.50;4159866;28;20036;-67
2022/08/04 07:30:58;;;;;;;6.32;1.90;;;;;;;27.64;41.40;100250.91;4162855;28;20133;-68
2022/08/04 07:33:01;;;;;;;5.78;2.42;;;;;;;27.59;41.82;100253.00;4159317;28;20091;-67
2022/08/04 07:35:05;;;;;;;4.75;2.58;;;;;;;27.68;41.71;100255.13;4175433;28;20037;-67
2022/08/04 07:37:09;;;;;;;3.45;2.03;;;;;;;27.77;41.51;100253.69;4163788;28;20503;-68
2022/08/04 07:39:13;;;;;;;2.75;1.85;;;;;;;27.80;42.11;100250.84;4176451;28;20072;-68
2022/08/04 07:41:32;;;;;;;6.95;2.28;;;;;;;27.87;42.50;100258.38;4173623;28;20041;-67
2022/08/04 07:43:38;;;;;;;5.03;2.20;;;;;;;27.87;42.52;100252.19;4159310;28;20088;-68
2022/08/04 07:45:41;;;;;;;7.07;2.22;;;;;;;27.95;42.32;100257.91;4161105;28;20499;-68
2022/08/04 07:47:44;;;;;;;3.47;2.20;;;;;;;28.02;42.20;100258.41;4163674;28;20487;-68
2022/08/04 07:50:11;;;;;;;4.07;2.28;;;;;;;28.04;41.90;100252.03;4162549;28;20403;-68
2022/08/04 07:52:15;;;;;;;2.50;1.80;;;;;;;28.04;41.69;100259.19;4163262;28;20029;-68
2022/08/04 07:54:18;;;;;;;7.13;2.40;;;;;;;28.07;41.86;100264.34;4165984;28;20056;-68
2022/08/04 07:56:21;;;;;;;9.30;2.55;;;;;;;28.14;41.24;100254.13;4165689;28;20064;-68
2022/08/04 07:58:27;;;;;;;4.75;2.58;;;;;;;28.25;41.64;100258.81;4165973;28;20045;-68
2022/08/04 08:00:32;;;;;;;4.25;2.30;;;;;;;28.28;41.31;100258.59;4165210;28;20488;-68
2022/08/04 08:02:37;;;;;;;6.38;2.17;;;;;;;28.36;40.76;100250.97;4162953;28;20038;-67
2022/08/04 08:04:40;;;;;;;3.35;2.05;;;;;;;28.45;40.77;100246.84;4166427;28;20046;-68
2022/08/04 08:06:43;;;;;;;2.97;2.25;;;;;;;28.50;40.88;100253.63;4164017;28;20033;-68
2022/08/04 08:08:46;;;;;;;5.30;2.20;;;;;;;28.50;40.81;100250.94;4164092;28;20035;-68
2022/08/04 08:10:49;;;;;;;6.68;2.33;;;;;;;28.62;40.92;100248.44;4164663;28;20060;-68
2022/08/04 08:12:54;;;;;;;5.18;2.30;;;;;;;28.73;40.65;100249.47;4162158;28;20476;-68
2022/08/04 08:14:59;;;;;;;3.97;1.92;;;;;;;28.77;40.26;100247.47;4165378;28;20041;-68
2022/08/04 08:17:03;;;;;;;7.88;2.10;;;;;;;28.84;39.90;100253.25;4165230;28;20044;-68
2022/08/04 08:19:06;;;;;;;3.75;2.17;;;;;;;28.88;40.17;100255.66;4166684;28;20041;-68
2022/08/04 08:21:09;;;;;;;4.05;2.17;;;;;;;28.88;40.00;100247.63;4166730;28;20149;-68
2022/08/04 08:23:12;;;;;;;8.68;2.85;;;;;;;28.96;40.07;100247.09;4161804;28;20083;-68
2022/08/04 08:25:15;;;;;;;6.63;2.45;;;;;;;29.08;39.41;100238.25;4161518;28;20033;-68
2022/08/04 08:27:18;;;;;;;3.92;1.88;;;;;;;29.09;39.33;100236.44;4159770;28;20045;-68
2022/08/04 08:29:22;;;;;;;3.47;2.05;;;;;;;29.02;39.56;100238.66;4157211;28;20038;-68
2022/08/04 08:31:27;;;;;;;4.28;2.30;;;;;;;29.11;39.50;100242.53;4157571;28;20034;-68
2022/08/04 08:33:52;;;;;;;5.60;2.10;;;;;;;29.18;39.55;100238.50;4164254;28;20045;-68
2022/08/04 08:36:01;;;;;;;5.03;2.13;;;;;;;29.29;39.39;100240.47;4164682;28;20342;-68
2022/08/04 08:38:06;;;;;;;5.72;1.90;;;;;;;29.45;38.80;100242.94;4164297;28;20037;-69
2022/08/04 08:40:29;;;;;;;3.60;2.17;;;;;;;29.49;38.70;100241.78;4159815;28;20030;-68
2022/08/04 08:43:03;;;;;;;3.53;2.10;;;;;;;29.54;38.26;100239.66;4163789;28;20041;-68
2022/08/04 08:46:20;;;;;;;8.07;2.25;;;;;;;29.52;38.35;100236.22;4162701;28;20099;-68
2022/08/04 08:49:01;;;;;;;5.80;2.60;;;;;;;29.49;38.63;100231.06;4159700;28;20045;-68
2022/08/04 08:51:32;;;;;;;4.67;1.90;;;;;;;29.65;38.71;100244.25;4162682;28;20036;-68
2022/08/04 08:53:53;;;;;;;6.10;2.20;;;;;;;29.72;38.83;100234.84;4154603;28;20068;-68
2022/08/04 08:56:14;;;;;;;6.05;2.30;;;;;;;29.86;37.87;100233.91;4162868;28;20046;-68
2022/08/04 08:58:44;;;;;;;3.45;2.30;;;;;;;29.91;38.07;100241.63;4161079;28;20099;-68
2022/08/04 09:00:54;;;;;;;8.07;2.50;;;;;;;29.93;37.84;100239.69;4162888;28;20037;-68
2022/08/04 09:03:27;;;;;;;4.07;2.28;;;;;;;29.93;37.76;100239.69;4164003;28;20042;-68
2022/08/04 09:06:11;;;;;;;4.07;2.47;;;;;;;29.99;37.56;100238.41;4162227;28;20504;-66
2022/08/04 09:08:29;;;;;;;3.05;2.15;;;;;;;29.94;37.71;100242.25;4148387;28;20053;-68
2022/08/04 09:10:41;;;;;;;4.25;2.40;;;;;;;30.07;37.80;100244.06;4191595;28;20036;-68
2022/08/04 09:12:51;;;;;;;4.13;2.45;;;;;;;30.14;38.14;100248.03;4162966;28;20376;-68
2022/08/04 09:15:00;;;;;;;7.97;2.60;;;;;;;30.29;36.95;100241.56;4163113;28;20458;-68
2022/08/04 09:17:07;;;;;;;3.75;2.55;;;;;;;30.37;37.19;100238.31;4179267;28;20147;-68
2022/08/04 09:19:25;;;;;;;5.20;2.13;;;;;;;30.43;36.92;100237.91;4179885;28;20450;-68
2022/08/04 09:21:47;;;;;;;4.82;2.35;;;;;;;30.52;37.27;100232.81;4163660;28;20044;-65
2022/08/04 09:24:10;;;;;;;5.55;2.45;;;;;;;30.74;36.69;100237.50;4162419;28;20045;-65
2022/08/04 09:26:40;;;;;;;5.25;2.30;;;;;;;30.77;36.62;100242.63;4161378;28;20048;-67
2022/08/04 09:28:53;;;;;;;3.90;2.10;;;;;;;30.79;36.93;100248.72;4158496;28;20468;-67
2022/08/04 09:31:05;;;;;;;8.82;2.22;;;;;;;30.84;36.36;100235.84;4163342;28;20476;-66
2022/08/04 09:33:18;;;;;;;3.92;2.47;;;;;;;30.96;36.28;100244.81;4161110;28;20049;-66
2022/08/04 09:35:57;;;;;;;5.60;2.60;;;;;;;31.00;36.14;100243.59;4174867;28;20094;-66
2022/08/04 09:38:10;;;;;;;6.72;3.05;;;;;;;31.07;36.05;100244.00;4189607;28;20064;-66
2022/08/04 09:40:23;;;;;;;6.95;2.60;;;;;;;31.23;35.89;100241.03;4160538;28;20038;-67
2022/08/04 09:42:52;;;;;;;7.68;2.40;;;;;;;31.37;36.01;100232.75;4160699;28;20033;-67
2022/08/04 09:45:03;;;;;;;3.90;2.20;;;;;;;31.33;35.89;100240.19;4160876;28;20040;-68
2022/08/04 09:47:13;;;;;;;2.75;2.40;;;;;;;31.27;35.49;100240.66;4163245;28;20088;-68
2022/08/04 09:49:19;;;;;;;3.65;2.53;;;;;;;31.40;35.62;100234.38;4155544;28;20136;-65
2022/08/04 09:51:40;;;;;;;3.45;2.22;;;;;;;31.50;35.92;100241.59;4161568;28;20037;-68
2022/08/04 09:54:07;;;;;;;4.35;2.30;;;;;;;31.66;35.51;100241.28;4157492;28;20096;-67
2022/08/04 09:56:39;;;;;;;4.82;2.90;;;;;;;31.87;34.05;100240.56;4158000;28;20104;-67
2022/08/04 09:58:53;;;;;;;5.68;2.53;;;;;;;31.85;34.37;100231.78;4159183;28;20064;-68
2022/08/04 10:01:01;;;;;;;3.20;2.22;;;;;;;31.90;34.07;100236.78;4163153;28;20430;-67
2022/08/04 10:03:04;;;;;;;5.22;2.20;;;;;;;31.95;34.08;100237.25;4163131;28;20120;-66
2022/08/04 10:05:14;;;;;;;5.07;2.47;;;;;;;32.10;34.36;100232.50;4164160;28;20138;-66
2022/08/04 10:07:32;;;;;;;3.35;2.08;;;;;;;32.16;34.43;100232.03;4161233;28;20140;-67
2022/08/04 10:09:52;;;;;;;5.72;2.25;;;;;;;32.25;34.13;100231.28;4157369;28;20119;-65
2022/08/04 10:12:08;;;;;;;4.22;2.28;;;;;;;32.34;33.81;100230.56;4161807;28;20384;-64
2022/08/04 10:14:35;;;;;;;2.95;2.05;;;;;;;32.46;33.98;100228.72;4163207;28;20450;-65
2022/08/04 10:16:47;;;;;;;3.03;2.58;;;;;;;32.58;33.02;100220.59;4164853;28;20041;-67
2022/08/04 10:19:01;;;;;;;3.15;2.15;;;;;;;32.64;32.91;100214.72;4163455;28;20033;-66
2022/08/04 10:21:18;;;;;;;3.05;2.17;;;;;;;32.68;32.50;100217.06;4164757;28;20034;-66
2022/08/04 10:23:36;;;;;;;4.72;2.30;;;;;;;32.62;31.71;100214.84;4164452;28;20045;-67
2022/08/04 10:26:08;;;;;;;4.00;2.35;;;;;;;32.59;32.24;100212.38;4155975;28;20388;-65
2022/08/04 10:28:17;;;;;;;2.42;2.10;;;;;;;32.69;32.49;100210.66;4163174;28;20463;-67
2022/08/04 10:30:21;;;;;;;3.55;2.00;;;;;;;32.85;32.38;100212.94;4156761;28;20044;-66